Time;durP1;ratioP1;P1;durP2;ratioP2;P2;SDS_P1;SDS_P2;PMS_P1;PMS_P2;Temp;Humidity;BMP_temperature;BMP_pressure;BME280_temperature;BME280_humidity;BME280_pressure;Samples;Min_cycle;Max_cycle;Signal;HPM_P1;HPM_P2
2022/02/04 00:04:22;;;;;;;31.67;17.73;;;;;;;1.28;100.00;96526.41;4982419;28;20260;-64
2022/02/04 00:07:00;;;;;;;32.88;17.88;;;;;;;1.21;100.00;96531.47;4995061;28;20042;-65
2022/02/04 00:23:05;;;;;;;26.13;15.70;;;;;;;1.24;100.00;96528.16;5000624;28;20189;-67
2022/02/04 00:25:44;;;;;;;29.27;16.05;;;;;;;1.19;100.00;96528.28;5014323;28;20092;-66
2022/02/04 00:28:26;;;;;;;29.83;16.20;;;;;;;1.26;100.00;96530.53;5004783;28;20042;-66
2022/02/04 00:33:49;;;;;;;26.25;14.93;;;;;;;1.26;100.00;96535.91;4972581;28;20122;-66
2022/02/04 00:36:27;;;;;;;22.65;12.82;;;;;;;1.30;100.00;96532.31;4976970;28;20038;-66
2022/02/04 00:38:55;;;;;;;26.15;13.60;;;;;;;1.40;100.00;96536.63;4994461;28;20073;-67
2022/02/04 00:41:25;;;;;;;26.33;13.73;;;;;;;1.31;100.00;96533.91;4993612;28;20045;-66
2022/02/04 00:43:53;;;;;;;26.15;15.02;;;;;;;1.27;100.00;96530.22;5000716;28;20426;-66
2022/02/04 00:56:23;;;;;;;28.23;15.95;;;;;;;0.97;100.00;96534.50;5005726;28;20053;-63
2022/02/04 01:26:07;;;;;;;35.17;16.92;;;;;;;0.47;100.00;96562.38;4976298;28;20399;-65
2022/02/04 01:28:35;;;;;;;36.35;17.38;;;;;;;0.24;100.00;96553.47;4975562;28;20498;-66
2022/02/04 01:31:01;;;;;;;34.28;18.42;;;;;;;0.32;100.00;96560.03;4985825;28;20045;-66
2022/02/04 01:33:27;;;;;;;55.58;18.50;;;;;;;0.33;100.00;96562.41;4991977;28;20236;-66
2022/02/04 01:35:55;;;;;;;34.97;18.20;;;;;;;0.19;100.00;96564.34;5000281;28;20380;-66
2022/02/04 01:38:25;;;;;;;46.15;20.02;;;;;;;0.11;100.00;96560.47;4994610;28;20034;-66
2022/02/04 01:40:51;;;;;;;277.77;25.00;;;;;;;-0.26;100.00;96569.59;4999388;28;20042;-65
2022/02/04 01:43:21;;;;;;;168.57;21.05;;;;;;;-0.34;100.00;96567.56;4995337;28;20041;-63
2022/02/04 01:45:46;;;;;;;;;;;;;;;-0.34;100.00;96571.09;5000280;28;20045;-66
2022/02/04 01:48:12;;;;;;;41.35;19.58;;;;;;;-0.25;100.00;96560.44;4994871;28;19929;-65
2022/02/04 01:50:37;;;;;;;39.22;19.83;;;;;;;-0.15;100.00;96560.19;5000588;28;20048;-66
2022/02/04 01:53:04;;;;;;;45.90;21.08;;;;;;;0.10;100.00;96558.09;4995149;28;20132;-63
2022/02/04 01:55:30;;;;;;;41.25;19.85;;;;;;;0.30;100.00;96556.84;4999241;28;20149;-66
2022/02/04 01:57:55;;;;;;;42.45;20.98;;;;;;;0.19;100.00;96569.72;4997765;28;20076;-66
2022/02/04 02:00:21;;;;;;;54.28;21.42;;;;;;;0.08;100.00;96565.66;4991577;28;20050;-65
2022/02/04 02:02:47;;;;;;;48.50;21.38;;;;;;;0.05;100.00;96572.44;5007734;28;20041;-64
2022/02/04 02:05:12;;;;;;;35.72;19.08;;;;;;;0.01;100.00;96567.97;5013292;28;20132;-65
2022/02/04 02:07:45;;;;;;;41.45;18.13;;;;;;;-0.07;100.00;96572.19;5007721;28;20131;-64
2022/02/04 02:10:14;;;;;;;46.22;19.38;;;;;;;-0.14;100.00;96572.56;4993931;28;20436;-66
2022/02/04 02:12:53;;;;;;;46.22;18.98;;;;;;;-0.21;100.00;96582.94;4999664;28;20380;-66
2022/02/04 02:52:37;;;;;;;38.53;17.80;;;;;;;0.67;100.00;96628.50;4914519;29;20040;-68
2022/02/04 02:55:51;;;;;;;37.35;17.25;;;;;;;0.78;100.00;96639.06;4965170;28;21219;-65
2022/02/04 03:03:20;;;;;;;35.47;18.40;;;;;;;1.76;100.00;96622.03;4977668;28;20046;-66
2022/02/04 03:05:46;;;;;;;34.28;17.73;;;;;;;1.94;100.00;96620.22;4982620;28;20046;-66
2022/02/04 03:08:12;;;;;;;31.45;17.63;;;;;;;1.99;100.00;96622.00;4976718;28;20120;-66
2022/02/04 03:10:38;;;;;;;31.30;17.20;;;;;;;2.09;100.00;96622.50;4981686;28;20495;-65
2022/02/04 03:13:06;;;;;;;29.83;17.45;;;;;;;2.08;100.00;96618.19;4975952;28;20042;-64
2022/02/04 03:15:31;;;;;;;28.73;16.00;;;;;;;2.04;100.00;96625.34;4981944;28;20046;-66
2022/02/04 03:18:04;;;;;;;26.25;15.20;;;;;;;2.16;100.00;96635.56;4982955;28;20122;-66
2022/02/04 03:20:30;;;;;;;32.75;16.48;;;;;;;2.15;100.00;96630.47;4981917;28;20050;-66
2022/02/04 03:22:57;;;;;;;32.42;16.92;;;;;;;2.15;100.00;96639.34;4992744;28;20077;-66
2022/02/04 03:25:24;;;;;;;28.38;14.73;;;;;;;2.06;100.00;96641.25;4996494;28;20583;-66
2022/02/04 03:27:54;;;;;;;29.33;15.98;;;;;;;2.15;100.00;96642.06;4998950;28;20132;-66
2022/02/04 03:30:32;;;;;;;29.85;14.88;;;;;;;2.39;100.00;96632.75;4995902;28;20042;-65
2022/02/04 03:33:02;;;;;;;27.73;15.05;;;;;;;2.34;100.00;96635.59;4994672;28;20046;-67
2022/02/04 03:35:28;;;;;;;29.77;15.88;;;;;;;2.43;100.00;96639.09;4993735;28;20043;-67
2022/02/04 03:37:55;;;;;;;27.00;14.95;;;;;;;2.41;100.00;96639.44;5001271;28;20064;-65
2022/02/04 03:40:22;;;;;;;27.60;15.68;;;;;;;2.51;100.00;96630.22;4994540;28;20121;-67
2022/02/04 03:42:48;;;;;;;27.67;15.52;;;;;;;2.53;100.00;96638.03;4999811;28;20161;-66
2022/02/04 03:45:15;;;;;;;28.52;15.98;;;;;;;2.57;100.00;96637.06;4996731;28;20125;-66
2022/02/04 03:47:41;;;;;;;29.42;15.05;;;;;;;2.47;100.00;96634.69;5001243;28;20038;-65
2022/02/04 03:50:07;;;;;;;30.13;16.27;;;;;;;2.57;100.00;96641.69;4999125;28;20495;-66
2022/02/04 03:52:33;;;;;;;29.73;15.98;;;;;;;2.66;100.00;96645.19;5001195;28;20411;-65
2022/02/04 03:54:58;;;;;;;29.95;16.60;;;;;;;2.73;100.00;96642.81;4997789;28;20042;-65
2022/02/04 03:57:24;;;;;;;32.13;15.35;;;;;;;2.74;100.00;96641.72;4994892;28;20136;-66
2022/02/04 03:59:49;;;;;;;31.45;16.05;;;;;;;2.88;100.00;96655.06;5001747;28;20445;-67
2022/02/04 04:02:15;;;;;;;28.70;16.10;;;;;;;2.85;100.00;96655.72;4994307;28;20038;-66
2022/02/04 04:04:41;;;;;;;32.28;16.65;;;;;;;2.96;100.00;96653.50;5008989;28;20042;-63
2022/02/04 04:07:06;;;;;;;30.27;16.08;;;;;;;3.00;100.00;96654.44;5014179;28;20076;-64
2022/02/04 04:09:35;;;;;;;29.25;16.67;;;;;;;3.00;100.00;96652.53;5001193;28;20450;-68
2022/02/04 04:12:01;;;;;;;30.35;15.80;;;;;;;3.05;100.00;96644.25;4994592;28;20048;-66
2022/02/04 04:14:26;;;;;;;30.77;15.52;;;;;;;3.09;100.00;96640.91;4994310;28;20046;-67
2022/02/04 04:16:52;;;;;;;28.50;14.77;;;;;;;3.05;100.00;96654.28;5011553;28;20049;-66
2022/02/04 04:19:17;;;;;;;25.73;15.02;;;;;;;2.96;100.00;96651.56;4995018;28;20041;-68
2022/02/04 04:21:43;;;;;;;28.98;15.63;;;;;;;3.05;100.00;96655.06;5001403;28;20042;-65
2022/02/04 04:24:08;;;;;;;31.02;15.68;;;;;;;3.05;100.00;96651.59;4995860;28;20454;-66
2022/02/04 04:26:34;;;;;;;27.05;14.80;;;;;;;3.05;100.00;96646.97;5000762;28;20545;-66
2022/02/04 04:29:00;;;;;;;29.77;14.93;;;;;;;3.05;100.00;96646.16;5000293;28;20042;-66
2022/02/04 04:31:25;;;;;;;28.42;14.57;;;;;;;3.10;100.00;96651.44;4999709;28;20049;-65
2022/02/04 04:33:51;;;;;;;31.38;15.25;;;;;;;3.01;100.00;96650.63;5017313;28;20124;-65
2022/02/04 04:36:18;;;;;;;26.83;14.57;;;;;;;3.00;100.00;96652.53;4997081;28;20040;-66
2022/02/04 04:39:54;;;;;;;24.23;13.63;;;;;;;2.94;100.00;96655.72;5015647;28;20056;-65
2022/02/04 05:30:21;;;;;;;13.95;7.55;;;;;;;4.05;100.00;96692.19;5004564;28;20527;-68
2022/02/04 05:32:48;;;;;;;14.40;8.00;;;;;;;4.05;100.00;96681.34;5014593;28;20042;-67
2022/02/04 05:35:13;;;;;;;25.27;13.60;;;;;;;3.99;100.00;96684.22;5010377;28;20037;-67
2022/02/04 05:37:44;;;;;;;16.27;8.93;;;;;;;3.99;100.00;96681.50;5019413;28;20186;-67
2022/02/04 05:40:14;;;;;;;19.20;9.85;;;;;;;3.98;100.00;96673.69;5012256;28;20071;-66
2022/02/04 05:42:46;;;;;;;21.80;11.15;;;;;;;4.01;100.00;96686.59;5016346;28;20090;-66
2022/02/04 05:45:21;;;;;;;22.15;11.60;;;;;;;4.01;100.00;96684.69;5002851;28;20038;-67
2022/02/04 05:47:50;;;;;;;20.15;11.27;;;;;;;4.01;100.00;96684.69;5009301;28;20038;-67
2022/02/04 05:50:23;;;;;;;22.45;12.82;;;;;;;4.04;100.00;96677.06;4995819;28;20045;-67
2022/02/04 05:53:13;;;;;;;20.20;11.85;;;;;;;4.00;100.00;96683.13;4996829;28;20161;-67
2022/02/04 05:56:09;;;;;;;21.88;12.38;;;;;;;3.92;100.00;96680.44;4996923;28;20046;-67
2022/02/04 06:11:43;;;;;;;26.55;13.68;;;;;;;3.77;100.00;96701.50;5019738;28;20513;-67
2022/02/04 06:22:23;;;;;;;24.52;13.02;;;;;;;4.27;100.00;96705.50;5004724;28;20044;-67
2022/02/04 06:24:52;;;;;;;24.13;13.55;;;;;;;4.21;100.00;96709.50;5014952;28;20394;-66
2022/02/04 06:27:20;;;;;;;25.88;14.27;;;;;;;4.26;100.00;96701.19;5004777;28;20099;-65
2022/02/04 06:29:46;;;;;;;26.42;14.25;;;;;;;4.19;100.00;96698.97;5013423;28;20493;-65
2022/02/04 06:32:14;;;;;;;27.73;13.18;;;;;;;4.21;100.00;96704.88;5008930;28;20129;-66
2022/02/04 06:34:40;;;;;;;25.83;12.75;;;;;;;4.26;100.00;96697.69;5024209;28;20037;-66
2022/02/04 06:37:06;;;;;;;26.70;13.05;;;;;;;4.20;100.00;96700.56;5019296;28;20076;-68
2022/02/04 06:39:32;;;;;;;24.92;13.38;;;;;;;4.32;100.00;96704.50;5009230;28;20100;-65
2022/02/04 06:41:57;;;;;;;23.88;13.68;;;;;;;4.23;100.00;96707.25;5011950;28;20454;-65
2022/02/04 06:44:22;;;;;;;29.90;14.10;;;;;;;4.27;100.00;96694.66;5011249;28;20102;-66
2022/02/04 06:46:48;;;;;;;25.52;13.77;;;;;;;4.32;100.00;96716.16;5020584;28;20049;-66
2022/02/04 06:49:13;;;;;;;22.48;12.82;;;;;;;4.37;100.00;96713.25;5000096;28;20123;-64
2022/02/04 06:51:39;;;;;;;25.38;13.70;;;;;;;4.37;100.00;96718.69;5024417;28;20037;-66
2022/02/04 06:54:04;;;;;;;27.15;13.27;;;;;;;4.33;100.00;96723.16;5003456;28;20185;-62
2022/02/04 06:56:33;;;;;;;24.77;12.70;;;;;;;4.21;100.00;96729.28;5009174;28;20486;-64
2022/02/04 06:58:59;;;;;;;27.47;14.27;;;;;;;4.19;100.00;96725.28;5016971;28;20046;-67
2022/02/04 07:01:27;;;;;;;26.08;13.52;;;;;;;4.28;100.00;96725.28;5017492;28;20052;-68
2022/02/04 07:03:52;;;;;;;25.00;13.10;;;;;;;4.31;100.00;96719.19;5013898;28;20041;-67
2022/02/04 07:06:19;;;;;;;27.88;13.65;;;;;;;4.27;100.00;96723.66;5015865;28;20449;-67
2022/02/04 07:21:37;;;;;;;21.77;11.57;;;;;;;4.13;100.00;96732.03;5030970;28;20477;-67
2022/02/04 07:24:03;;;;;;;23.40;13.32;;;;;;;4.09;100.00;96734.59;5014002;28;20041;-63
2022/02/04 07:26:32;;;;;;;22.65;13.38;;;;;;;4.21;100.00;96733.91;5011087;28;20651;-66
2022/02/04 07:28:57;;;;;;;22.70;12.75;;;;;;;4.18;100.00;96735.34;5022619;28;20298;-67
2022/02/04 07:31:25;;;;;;;25.08;13.40;;;;;;;4.17;100.00;96732.97;5010873;28;20495;-66
2022/02/04 07:34:04;;;;;;;25.15;13.32;;;;;;;4.17;100.00;96731.03;5015453;28;20102;-67
2022/02/04 07:41:43;;;;;;;24.60;12.15;;;;;;;4.17;100.00;96731.03;5006455;28;20041;-67
2022/02/04 07:44:09;;;;;;;21.50;11.82;;;;;;;4.15;100.00;96733.28;5017213;28;20052;-67
2022/02/04 07:46:35;;;;;;;23.17;12.35;;;;;;;4.18;100.00;96737.28;5012132;28;20490;-67
2022/02/04 07:49:00;;;;;;;23.00;11.45;;;;;;;4.21;100.00;96737.41;5013663;28;20046;-68
2022/02/04 07:51:26;;;;;;;21.05;11.32;;;;;;;4.26;100.00;96738.34;5014474;28;20041;-67
2022/02/04 07:53:52;;;;;;;20.88;11.65;;;;;;;4.24;100.00;96740.59;5012348;28;20091;-66
2022/02/04 07:56:21;;;;;;;19.85;10.48;;;;;;;4.28;100.00;96750.47;5005824;28;20454;-67
2022/02/04 07:58:55;;;;;;;23.63;12.63;;;;;;;4.30;100.00;96747.44;5022423;28;20041;-67
2022/02/04 08:01:25;;;;;;;24.95;11.05;;;;;;;4.38;100.00;96752.03;5009488;28;20052;-67
2022/02/04 08:03:57;;;;;;;19.80;11.43;;;;;;;4.53;100.00;96756.13;5013444;28;20041;-66
2022/02/04 08:06:24;;;;;;;18.80;10.93;;;;;;;4.44;100.00;96761.56;5012975;28;21070;-66
2022/02/04 08:09:13;;;;;;;17.80;9.80;;;;;;;4.48;100.00;96759.00;5008377;28;20072;-66
2022/02/04 08:12:01;;;;;;;26.25;12.18;;;;;;;4.52;100.00;96752.63;5015574;28;20049;-68
2022/02/04 08:22:39;;;;;;;18.85;9.63;;;;;;;4.64;100.00;96745.69;4982381;28;20050;-67
2022/02/04 08:25:17;;;;;;;20.98;10.32;;;;;;;4.72;100.00;96753.00;5009264;28;20065;-63
2022/02/04 08:38:20;;;;;;;17.02;9.50;;;;;;;4.95;100.00;96754.31;5020139;28;20045;-67
2022/02/04 08:49:19;;;;;;;36.22;18.33;;;;;;;4.99;100.00;96749.03;5010070;28;20049;-66
2022/02/04 08:51:56;;;;;;;18.85;9.63;;;;;;;5.21;100.00;96756.06;4999440;28;20038;-65
2022/02/04 08:54:45;;;;;;;15.82;8.40;;;;;;;5.34;100.00;96760.44;4995934;28;20128;-65
2022/02/04 08:57:23;;;;;;;16.38;9.15;;;;;;;5.14;100.00;96761.22;5002890;28;20091;-66
2022/02/04 09:00:02;;;;;;;18.35;9.18;;;;;;;5.38;100.00;96754.34;4988008;28;20042;-66
2022/02/04 09:02:40;;;;;;;19.23;9.57;;;;;;;5.16;100.00;96756.25;5008785;28;20046;-65
2022/02/04 09:05:11;;;;;;;16.15;9.43;;;;;;;5.02;100.00;96742.13;5014948;28;20043;-65
2022/02/04 09:08:12;;;;;;;20.92;9.60;;;;;;;5.09;100.00;96743.19;5020384;28;20417;-66
2022/02/04 09:10:37;;;;;;;16.70;8.55;;;;;;;5.11;100.00;96746.41;5022135;28;20080;-65
2022/02/04 09:21:12;;;;;;;16.10;8.82;;;;;;;5.16;100.00;96751.59;5010276;28;20041;-65
2022/02/04 09:23:38;;;;;;;17.27;9.90;;;;;;;5.05;100.00;96742.28;4999472;28;20057;-67
2022/02/04 09:26:07;;;;;;;17.95;8.93;;;;;;;5.06;100.00;96748.47;4996101;28;20045;-65
2022/02/04 09:28:34;;;;;;;15.68;8.43;;;;;;;5.13;100.00;96757.72;5002909;28;20116;-66
2022/02/04 09:30:59;;;;;;;15.88;8.98;;;;;;;5.05;100.00;96750.41;4985234;28;20045;-68
2022/02/04 09:33:25;;;;;;;15.13;8.23;;;;;;;5.09;100.00;96751.34;5013331;28;20060;-70
2022/02/04 09:35:50;;;;;;;13.45;7.47;;;;;;;5.51;99.03;96748.66;5016215;28;20059;-69
2022/02/04 09:38:16;;;;;;;17.10;8.35;;;;;;;5.55;98.71;96748.78;4994291;28;20042;-69
2022/02/04 09:40:41;;;;;;;15.27;7.40;;;;;;;5.45;99.39;96741.81;5007090;28;20072;-68
2022/02/04 09:43:07;;;;;;;14.05;7.82;;;;;;;5.55;96.44;96746.06;4995920;28;20064;-67
2022/02/04 09:45:36;;;;;;;14.90;7.43;;;;;;;5.67;95.78;96743.41;4999464;28;20529;-66
2022/02/04 09:48:05;;;;;;;16.83;7.53;;;;;;;5.77;95.53;96742.19;4998548;28;20046;-65
2022/02/04 09:50:33;;;;;;;;;;;;;;;5.55;96.39;96735.97;4996672;28;20046;-67
2022/02/04 10:11:00;;;;;;;8.30;5.20;;;;;;;6.06;91.30;96730.41;5007342;28;20046;-68
2022/02/04 10:18:39;;;;;;;10.32;5.65;;;;;;;5.96;90.85;96730.84;4999408;28;20045;-68
2022/02/04 10:21:07;;;;;;;7.72;4.57;;;;;;;5.78;92.23;96735.63;5000813;28;20041;-69
2022/02/04 10:23:50;;;;;;;14.30;5.43;;;;;;;6.19;89.57;96727.72;5015104;28;20061;-68
2022/02/04 10:26:17;;;;;;;14.23;6.80;;;;;;;6.36;88.73;96732.97;4990055;28;20038;-67
2022/02/04 10:28:43;;;;;;;9.07;4.68;;;;;;;6.75;87.17;96716.31;5000585;28;20053;-68
2022/02/04 10:31:15;;;;;;;7.50;4.43;;;;;;;6.64;87.08;96718.69;4992788;28;20133;-69
2022/02/04 10:34:14;;;;;;;9.73;4.50;;;;;;;6.31;87.99;96709.50;5000069;28;20046;-67
2022/02/04 10:36:55;;;;;;;7.35;4.40;;;;;;;6.39;86.85;96702.38;4997522;28;20038;-68
2022/02/04 10:39:44;;;;;;;8.50;4.65;;;;;;;6.40;86.32;96690.34;5001230;28;20437;-70
2022/02/04 10:45:31;;;;;;;7.53;4.10;;;;;;;6.65;84.23;96687.63;4991980;28;20053;-68
2022/02/04 10:54:08;;;;;;;10.27;4.22;;;;;;;7.04;83.29;96666.22;4999430;28;20085;-68
2022/02/04 11:07:11;;;;;;;9.18;4.28;;;;;;;8.35;76.49;96650.25;5018958;28;20413;-66
2022/02/04 11:31:46;;;;;;;5.78;3.13;;;;;;;9.66;66.26;96604.25;4995581;28;20566;-67
2022/02/04 11:43:43;;;;;;;6.97;2.95;;;;;;;10.13;64.49;96594.13;5021399;28;20494;-65
2022/02/04 11:48:49;;;;;;;7.13;3.70;;;;;;;9.80;63.96;96583.81;5010756;28;20045;-65
2022/02/04 11:51:32;;;;;;;6.05;3.58;;;;;;;10.71;61.60;96577.44;5027509;28;20469;-66
2022/02/04 11:57:03;;;;;;;7.25;3.90;;;;;;;11.31;58.85;96584.06;5018322;28;20512;-66
2022/02/04 11:59:37;;;;;;;6.30;3.90;;;;;;;10.60;61.22;96592.91;5011725;28;20041;-66
2022/02/04 12:02:29;;;;;;;6.07;3.63;;;;;;;10.29;62.50;96580.31;5015020;28;20052;-66
2022/02/04 12:05:04;;;;;;;6.88;4.25;;;;;;;9.83;63.02;96583.88;5016628;28;20071;-66
2022/02/04 12:07:37;;;;;;;7.07;4.30;;;;;;;10.18;62.74;96571.94;5019462;28;20071;-66
2022/02/04 12:10:21;;;;;;;9.35;4.45;;;;;;;9.95;63.71;96577.41;5015798;28;20119;-65
2022/02/04 12:12:56;;;;;;;7.35;4.45;;;;;;;9.70;63.96;96563.31;5016233;28;20063;-66
2022/02/04 12:15:31;;;;;;;8.07;4.18;;;;;;;10.07;62.87;96560.81;5010702;28;20947;-66
2022/02/04 12:18:03;;;;;;;8.02;4.60;;;;;;;9.94;63.80;96559.44;5016879;28;20103;-66
2022/02/04 12:23:33;;;;;;;8.15;4.45;;;;;;;10.79;61.27;96547.41;5009239;28;20068;-67
2022/02/04 12:26:04;;;;;;;8.38;4.90;;;;;;;10.65;60.18;96545.25;5014391;28;20100;-66
2022/02/04 12:28:42;;;;;;;7.75;4.30;;;;;;;10.94;60.39;96551.09;5016584;28;20064;-64
2022/02/04 12:31:14;;;;;;;6.97;3.85;;;;;;;10.23;61.65;96533.31;5012999;28;20046;-67
2022/02/04 12:33:44;;;;;;;28.13;14.95;;;;;;;9.31;63.72;96536.03;5019689;28;20045;-66
2022/02/04 12:36:40;;;;;;;14.18;7.43;;;;;;;10.13;62.62;96537.44;5014893;28;20486;-65
2022/02/04 12:39:14;;;;;;;10.10;5.28;;;;;;;10.46;61.38;96518.78;5028247;28;20050;-66
2022/02/04 12:41:55;;;;;;;6.95;4.03;;;;;;;10.13;62.92;96533.91;5020942;28;20127;-65
2022/02/04 12:44:23;;;;;;;8.75;4.60;;;;;;;10.32;62.91;96538.53;5014102;28;20064;-65
2022/02/04 12:47:01;;;;;;;7.13;3.63;;;;;;;11.29;59.89;96535.06;5030289;28;20069;-65
2022/02/04 12:49:31;;;;;;;6.93;4.00;;;;;;;11.59;59.15;96534.19;5014469;28;20045;-68
2022/02/04 13:07:45;;;;;;;5.72;3.80;;;;;;;11.31;58.69;96512.78;5015919;28;20099;-64
2022/02/04 13:10:16;;;;;;;7.05;3.70;;;;;;;10.55;60.27;96511.06;5012026;28;20583;-65
2022/02/04 13:12:50;;;;;;;7.28;4.10;;;;;;;10.42;61.75;96510.50;5016967;28;20401;-67
2022/02/04 13:15:16;;;;;;;8.23;3.80;;;;;;;9.75;63.98;96506.34;5009657;28;20181;-66
2022/02/04 13:17:42;;;;;;;6.68;3.97;;;;;;;9.45;64.03;96511.69;5019551;28;20061;-65
2022/02/04 13:20:08;;;;;;;6.47;4.00;;;;;;;9.28;65.80;96504.78;5013341;28;20042;-64
2022/02/04 13:22:37;;;;;;;10.75;4.15;;;;;;;9.18;66.33;96495.25;5029939;28;20045;-66
2022/02/04 13:25:11;;;;;;;6.75;3.83;;;;;;;9.49;66.01;96492.63;5026264;28;20057;-68
2022/02/04 13:27:38;;;;;;;8.68;4.45;;;;;;;9.30;66.77;96490.75;5023172;28;20070;-66
2022/02/04 13:30:25;;;;;;;9.85;4.05;;;;;;;9.79;65.39;96490.00;5016194;28;20426;-68
2022/02/04 13:32:51;;;;;;;6.57;3.88;;;;;;;9.97;64.12;96490.28;5020144;28;20037;-65
2022/02/04 13:35:29;;;;;;;9.13;3.53;;;;;;;10.10;63.29;96488.13;5014223;28;20053;-66
2022/02/04 13:38:02;;;;;;;8.60;4.47;;;;;;;9.95;63.73;96489.88;5026559;28;20049;-66
2022/02/04 13:40:43;;;;;;;11.70;4.55;;;;;;;10.01;63.85;96484.88;4994901;28;20065;-66
2022/02/04 13:43:22;;;;;;;6.78;3.53;;;;;;;10.08;62.88;96476.75;5013068;28;20146;-65
2022/02/04 13:45:58;;;;;;;6.20;3.67;;;;;;;10.07;63.33;96486.16;5018217;28;20042;-64
2022/02/04 13:48:38;;;;;;;7.55;4.32;;;;;;;9.06;66.45;96478.22;5012609;28;20041;-65
2022/02/04 13:57:27;;;;;;;10.15;3.85;;;;;;;8.65;68.84;96484.06;4990205;28;20672;-65
2022/02/04 14:00:12;;;;;;;6.32;3.40;;;;;;;8.01;71.88;96486.97;5001588;28;20117;-64
2022/02/04 14:02:42;;;;;;;7.18;3.75;;;;;;;8.10;71.50;96483.22;5019351;28;20118;-64
2022/02/04 14:05:09;;;;;;;8.38;3.35;;;;;;;8.15;70.02;96477.50;5010796;28;20077;-64
2022/02/04 14:07:47;;;;;;;7.65;4.00;;;;;;;7.92;71.78;96486.34;5016918;28;20048;-65
2022/02/04 14:10:31;;;;;;;9.30;3.88;;;;;;;7.48;73.51;96489.19;5013992;28;20593;-64
2022/02/04 14:13:09;;;;;;;7.53;4.00;;;;;;;7.30;74.22;96486.03;5016469;28;20518;-63
2022/02/04 14:15:37;;;;;;;8.93;4.05;;;;;;;7.89;73.69;96480.84;5018989;28;20038;-66
2022/02/04 14:18:10;;;;;;;8.73;3.97;;;;;;;7.76;73.12;96486.38;5024199;28;20102;-68
2022/02/04 14:20:41;;;;;;;5.60;3.45;;;;;;;7.74;73.67;96485.13;5020538;28;20060;-64
2022/02/04 14:23:08;;;;;;;6.57;3.88;;;;;;;7.49;73.02;96484.53;5010635;28;20038;-66
2022/02/04 14:25:45;;;;;;;5.32;3.30;;;;;;;7.56;73.32;96490.16;5025277;28;20053;-62
2022/02/04 14:28:18;;;;;;;13.38;5.20;;;;;;;7.57;72.83;96495.25;5025540;28;20038;-65
2022/02/04 14:30:44;;;;;;;6.78;3.50;;;;;;;7.38;72.21;96467.91;5025612;28;20079;-62
2022/02/04 14:33:31;;;;;;;6.35;3.47;;;;;;;7.23;73.48;96480.38;5013267;28;20510;-64
2022/02/04 14:36:07;;;;;;;6.15;3.45;;;;;;;7.34;73.10;96488.84;5002427;28;20508;-64
2022/02/04 14:50:05;;;;;;;7.65;3.40;;;;;;;7.11;74.29;96469.56;5017617;28;20057;-66
2022/02/04 15:02:59;;;;;;;31.25;8.40;;;;;;;7.34;74.13;96481.44;5016515;28;20037;-67
2022/02/04 15:05:31;;;;;;;7.40;2.78;;;;;;;7.15;74.18;96475.88;5006641;28;20049;-67
2022/02/04 15:08:01;;;;;;;6.55;2.92;;;;;;;6.86;73.98;96469.69;5011562;28;20042;-64
2022/02/04 15:10:29;;;;;;;4.18;2.65;;;;;;;6.60;76.33;96478.31;5009423;28;20084;-66
2022/02/04 15:12:55;;;;;;;4.55;2.30;;;;;;;6.72;76.21;96475.56;5014918;28;20042;-69
2022/02/04 15:15:21;;;;;;;3.78;2.30;;;;;;;6.86;75.36;96481.38;5004692;28;20038;-65
2022/02/04 15:17:47;;;;;;;3.15;2.00;;;;;;;6.61;76.36;96477.16;5019846;28;20104;-68
2022/02/04 15:20:12;;;;;;;9.65;2.70;;;;;;;6.53;77.92;96489.78;4990931;28;20141;-66
2022/02/04 15:22:38;;;;;;;5.03;1.60;;;;;;;6.29;79.03;96485.22;5019559;28;20046;-64
2022/02/04 15:25:12;;;;;;;2.72;1.83;;;;;;;6.54;79.00;96490.59;5016715;28;20120;-63
2022/02/04 15:27:43;;;;;;;3.60;1.85;;;;;;;6.61;79.33;96490.78;5025881;28;20106;-66
2022/02/04 15:30:10;;;;;;;3.38;1.90;;;;;;;6.51;79.11;96492.06;5020547;28;20480;-66
2022/02/04 15:32:36;;;;;;;6.65;2.53;;;;;;;6.34;79.65;96493.13;5019009;28;20060;-67
2022/02/04 15:35:04;;;;;;;3.30;1.90;;;;;;;6.17;80.73;96483.31;5020284;28;20158;-67
2022/02/04 15:37:33;;;;;;;2.75;1.75;;;;;;;5.96;82.05;96491.63;5015725;28;20614;-65
2022/02/04 15:39:58;;;;;;;3.85;1.88;;;;;;;5.69;83.28;96485.72;5019448;28;20133;-66
2022/02/04 15:42:24;;;;;;;2.95;1.70;;;;;;;5.61;84.19;96483.88;5016365;28;20770;-66
2022/02/04 15:45:15;;;;;;;3.42;1.75;;;;;;;5.58;84.18;96489.22;5025568;28;20053;-64
2022/02/04 15:47:57;;;;;;;2.75;1.80;;;;;;;5.66;84.09;96486.38;5020337;28;20056;-66
2022/02/04 15:50:43;;;;;;;3.17;1.42;;;;;;;5.61;83.38;96485.81;5012783;28;20590;-64
2022/02/04 15:56:05;;;;;;;2.25;1.35;;;;;;;5.50;84.21;96488.19;5017504;28;20049;-65
2022/02/04 16:01:50;;;;;;;3.45;1.38;;;;;;;5.40;84.49;96480.47;5012752;28;20042;-66
2022/02/04 16:04:28;;;;;;;2.08;1.30;;;;;;;5.39;85.38;96489.78;5016646;28;20095;-66
2022/02/04 16:06:54;;;;;;;3.55;1.95;;;;;;;5.32;85.60;96493.03;5023776;28;20060;-65
2022/02/04 16:09:21;;;;;;;2.03;1.40;;;;;;;5.36;85.75;96502.88;5012673;28;20049;-64
2022/02/04 16:14:43;;;;;;;1.77;1.15;;;;;;;5.24;86.97;96502.06;5022914;28;20140;-65
2022/02/04 16:19:44;;;;;;;2.08;1.50;;;;;;;5.19;88.07;96500.38;5016114;28;20041;-65
2022/02/04 16:22:28;;;;;;;1.63;1.40;;;;;;;5.20;88.71;96501.16;5014163;28;20049;-65
2022/02/04 16:25:14;;;;;;;1.60;1.30;;;;;;;5.23;88.41;96497.78;5018119;28;20049;-67
2022/02/04 16:30:08;;;;;;;5.05;1.50;;;;;;;5.27;88.11;96510.31;5011540;28;20052;-64
2022/02/04 16:32:33;;;;;;;2.85;1.35;;;;;;;5.28;87.86;96511.94;5019971;28;20072;-66
2022/02/04 16:35:02;;;;;;;2.75;0.90;;;;;;;5.23;87.21;96519.50;5018482;28;20061;-68
2022/02/04 16:37:31;;;;;;;1.73;1.05;;;;;;;5.20;86.51;96510.09;5029562;28;20109;-66
2022/02/04 16:39:57;;;;;;;5.05;2.25;;;;;;;5.17;86.36;96510.78;5026240;28;20053;-67
2022/02/04 16:42:23;;;;;;;1.70;1.10;;;;;;;5.19;86.46;96527.53;5013947;28;20957;-66
2022/02/04 16:44:48;;;;;;;0.73;0.70;;;;;;;5.23;86.17;96533.06;5019418;28;20045;-66
2022/02/04 16:47:15;;;;;;;3.08;1.80;;;;;;;5.23;85.67;96535.78;5014275;28;20045;-67
2022/02/04 16:49:40;;;;;;;0.93;0.82;;;;;;;5.26;86.00;96532.41;5017866;28;20126;-67
2022/02/04 16:52:06;;;;;;;1.67;1.23;;;;;;;5.26;86.01;96546.00;5014886;28;20045;-65
2022/02/04 16:54:33;;;;;;;1.00;0.93;;;;;;;5.32;85.68;96539.19;5018800;28;20048;-66
2022/02/04 16:56:59;;;;;;;2.90;1.08;;;;;;;5.26;86.04;96549.50;5017643;28;20045;-64
2022/02/04 16:59:26;;;;;;;2.25;1.13;;;;;;;5.13;86.30;96543.22;5015099;28;20041;-66
2022/02/04 17:01:52;;;;;;;1.10;1.00;;;;;;;5.04;87.73;96545.25;5019802;28;20524;-65
2022/02/04 17:04:18;;;;;;;2.83;1.70;;;;;;;4.95;89.14;96550.75;5020621;28;20192;-65
2022/02/04 17:06:47;;;;;;;5.32;2.60;;;;;;;4.89;90.05;96554.00;5028340;28;20185;-64
2022/02/04 17:11:44;;;;;;;0.98;0.90;;;;;;;4.85;90.80;96551.16;5022010;28;20041;-64
2022/02/04 17:14:10;;;;;;;0.90;0.90;;;;;;;4.81;91.16;96561.09;5015286;28;20053;-66
2022/02/04 17:16:41;;;;;;;1.75;0.90;;;;;;;4.77;91.15;96565.56;5018093;28;20096;-64
2022/02/04 17:19:06;;;;;;;2.95;1.80;;;;;;;4.83;90.77;96563.47;5013310;28;20037;-64
2022/02/04 17:21:34;;;;;;;0.90;0.80;;;;;;;4.81;90.75;96565.69;5014133;28;20262;-65
2022/02/04 17:24:00;;;;;;;1.85;1.00;;;;;;;4.84;90.47;96584.81;5016191;28;20053;-63
2022/02/04 17:26:25;;;;;;;1.83;1.00;;;;;;;4.86;90.89;96579.88;5011010;28;20041;-65
2022/02/04 17:28:51;;;;;;;1.33;0.90;;;;;;;4.97;90.39;96575.63;5018782;28;20065;-65
2022/02/04 17:31:17;;;;;;;3.20;1.05;;;;;;;4.99;89.80;96580.72;5013540;28;20034;-63
2022/02/04 17:33:42;;;;;;;1.50;1.00;;;;;;;5.01;89.49;96574.97;5019246;28;20065;-65
2022/02/04 17:36:08;;;;;;;2.13;0.88;;;;;;;5.01;89.93;96581.19;5014065;28;20128;-65
2022/02/04 17:38:33;;;;;;;1.08;0.80;;;;;;;5.00;90.87;96585.03;5019590;28;20041;-66
2022/02/04 17:41:00;;;;;;;1.60;1.00;;;;;;;4.99;90.15;96583.44;5021098;28;20051;-66
2022/02/04 17:43:26;;;;;;;1.67;0.93;;;;;;;4.96;90.39;96579.47;5023672;28;20053;-66
2022/02/04 17:45:52;;;;;;;2.28;1.27;;;;;;;4.97;90.63;96586.50;5025840;28;20036;-63
2022/02/04 17:49:09;;;;;;;2.63;1.42;;;;;;;5.00;90.97;96585.03;5013900;28;20045;-63
2022/02/04 17:51:18;;;;;;;1.20;1.10;;;;;;;4.97;90.92;96588.41;5010867;28;20049;-63